Time;durP1;ratioP1;P1;durP2;ratioP2;P2;SDS_P1;SDS_P2;PMS_P1;PMS_P2;Temp;Humidity;BMP_temperature;BMP_pressure;BME280_temperature;BME280_humidity;BME280_pressure;Samples;Min_cycle;Max_cycle;Signal;HPM_P1;HPM_P2
2022/08/01 00:00:02;;;;;;;1999.90;999.90;;;;;;;12.35;100.00;99454.94;5054169;28;20102;-51
2022/08/01 00:03:05;;;;;;;1999.90;999.90;;;;;;;12.44;100.00;99458.13;5054703;28;20044;-51
2022/08/01 00:05:49;;;;;;;1999.90;999.90;;;;;;;12.36;100.00;99461.06;5053416;28;20038;-51
2022/08/01 00:08:33;;;;;;;1999.90;999.90;;;;;;;12.40;100.00;99457.38;5056921;28;20467;-51
2022/08/01 00:11:18;;;;;;;1999.90;999.90;;;;;;;12.38;100.00;99451.31;5059548;28;20090;-51
2022/08/01 00:14:03;;;;;;;1999.90;999.90;;;;;;;12.38;100.00;99441.72;5056277;28;20064;-51
2022/08/01 00:16:48;;;;;;;1999.90;999.90;;;;;;;12.23;100.00;99452.78;5062721;28;20105;-52
2022/08/01 00:19:33;;;;;;;1999.90;999.90;;;;;;;12.27;100.00;99446.50;5071845;28;20529;-51
2022/08/01 00:22:17;;;;;;;1999.90;999.90;;;;;;;12.32;100.00;99449.81;5069181;28;20059;-51
2022/08/01 00:25:04;;;;;;;1999.90;999.90;;;;;;;12.33;100.00;99441.00;5063885;28;20053;-51
2022/08/01 00:27:48;;;;;;;1999.90;999.90;;;;;;;12.25;100.00;99444.84;5055620;28;20102;-51
2022/08/01 00:30:32;;;;;;;1999.90;999.90;;;;;;;12.22;100.00;99447.56;5054245;28;20131;-51
2022/08/01 00:33:17;;;;;;;1999.90;999.90;;;;;;;12.07;100.00;99433.25;5053917;28;20131;-51
2022/08/01 00:36:02;;;;;;;1999.90;999.90;;;;;;;12.15;100.00;99434.69;5058612;28;20063;-51
2022/08/01 00:38:46;;;;;;;1999.90;999.90;;;;;;;12.09;100.00;99441.91;5056071;28;20071;-51
2022/08/01 00:41:30;;;;;;;1999.90;999.90;;;;;;;12.00;100.00;99432.63;5061295;28;20485;-51
2022/08/01 00:44:15;;;;;;;1999.90;999.90;;;;;;;12.11;100.00;99433.06;5056902;28;20048;-51
2022/08/01 00:46:59;;;;;;;1999.90;999.90;;;;;;;11.94;100.00;99432.84;5055577;28;20564;-51
2022/08/01 00:49:44;;;;;;;1999.90;999.90;;;;;;;11.94;100.00;99430.22;5053876;28;20083;-51
2022/08/01 00:52:29;;;;;;;1999.90;999.90;;;;;;;11.95;100.00;99426.69;5055655;28;20064;-51
2022/08/01 00:55:13;;;;;;;1999.90;999.90;;;;;;;11.96;100.00;99428.41;5053405;28;20045;-51
2022/08/01 00:57:58;;;;;;;1999.90;999.90;;;;;;;11.88;100.00;99427.81;5053148;28;20048;-51
2022/08/01 01:00:43;;;;;;;1999.90;999.90;;;;;;;11.86;100.00;99420.03;5052545;28;20068;-51
2022/08/01 01:03:28;;;;;;;1999.90;999.90;;;;;;;11.90;100.00;99431.25;5053696;28;20094;-50
2022/08/01 01:06:35;;;;;;;1999.90;999.90;;;;;;;11.96;100.00;99422.28;5057592;28;20059;-51
2022/08/01 01:09:33;;;;;;;1999.90;999.90;;;;;;;11.87;100.00;99416.47;5053060;28;20048;-51
2022/08/01 01:12:48;;;;;;;1999.90;999.90;;;;;;;11.84;100.00;99418.31;5053218;28;20060;-50
2022/08/01 01:15:39;;;;;;;1999.90;999.90;;;;;;;11.87;100.00;99426.97;5053784;28;20059;-51
2022/08/01 01:18:47;;;;;;;1999.90;999.90;;;;;;;11.83;100.00;99437.59;5059311;28;20047;-51
2022/08/01 01:21:58;;;;;;;1999.90;999.90;;;;;;;11.78;100.00;99431.66;5063587;28;20049;-51
2022/08/01 01:25:06;;;;;;;1999.90;999.90;;;;;;;11.76;100.00;99422.97;5051771;28;20107;-51
2022/08/01 01:28:12;;;;;;;1999.90;999.90;;;;;;;11.64;100.00;99421.66;5052366;28;20491;-51
2022/08/01 01:30:59;;;;;;;1999.90;999.90;;;;;;;11.69;100.00;99430.22;5058005;28;20076;-51
2022/08/01 01:33:43;;;;;;;1999.90;999.90;;;;;;;11.70;100.00;99424.94;5054073;28;20045;-51
2022/08/01 01:36:30;;;;;;;1999.90;999.90;;;;;;;11.62;100.00;99418.22;5054048;28;20048;-51
2022/08/01 01:39:16;;;;;;;1999.90;999.90;;;;;;;11.65;100.00;99418.13;5053986;28;20102;-51
2022/08/01 01:42:05;;;;;;;1999.90;999.90;;;;;;;11.69;100.00;99419.72;5053718;28;20060;-51
2022/08/01 01:44:51;;;;;;;1999.90;999.90;;;;;;;11.58;100.00;99408.78;5060484;28;20070;-51
2022/08/01 01:47:38;;;;;;;1999.90;999.90;;;;;;;11.58;100.00;99411.38;5052647;28;20509;-51
2022/08/01 01:50:24;;;;;;;1999.90;999.90;;;;;;;11.53;100.00;99405.44;5055033;28;20045;-51
2022/08/01 01:53:10;;;;;;;1999.90;999.90;;;;;;;11.60;100.00;99415.69;5052176;28;20040;-51
2022/08/01 01:55:57;;;;;;;1999.90;999.90;;;;;;;11.62;100.00;99411.22;5056212;28;20048;-51
2022/08/01 01:58:43;;;;;;;1999.90;999.90;;;;;;;11.58;100.00;99409.63;5067393;28;20063;-51
2022/08/01 02:01:33;;;;;;;1999.90;999.90;;;;;;;11.58;100.00;99406.16;5068942;28;20044;-51
2022/08/01 02:04:21;;;;;;;1999.90;999.90;;;;;;;11.58;100.00;99414.00;5062793;28;20932;-51
2022/08/01 02:07:09;;;;;;;1999.90;999.90;;;;;;;11.61;100.00;99408.66;5068298;28;20097;-51
2022/08/01 02:09:55;;;;;;;1999.90;999.90;;;;;;;11.55;100.00;99412.34;5056481;28;20052;-51
2022/08/01 02:12:42;;;;;;;1999.90;999.90;;;;;;;11.44;100.00;99409.25;5053832;28;20460;-52
2022/08/01 02:15:27;;;;;;;1999.90;999.90;;;;;;;11.46;100.00;99417.91;5061190;28;20045;-51
2022/08/01 02:18:12;;;;;;;1999.90;999.90;;;;;;;11.43;100.00;99402.28;5062021;28;20246;-51
2022/08/01 02:20:58;;;;;;;1999.90;999.90;;;;;;;11.43;100.00;99400.50;5066679;28;20072;-51
2022/08/01 02:23:43;;;;;;;1999.90;999.90;;;;;;;11.52;100.00;99406.34;5052743;28;20052;-51
2022/08/01 02:26:29;;;;;;;1999.90;999.90;;;;;;;11.42;100.00;99406.69;5053060;28;20051;-51
2022/08/01 02:29:21;;;;;;;1999.90;999.90;;;;;;;11.51;100.00;99413.38;5058997;28;20122;-51
2022/08/01 02:32:10;;;;;;;1999.90;999.90;;;;;;;11.44;100.00;99399.63;5068290;28;20044;-51
2022/08/01 02:34:56;;;;;;;1999.90;999.90;;;;;;;11.43;100.00;99407.53;5058615;28;20591;-51
2022/08/01 02:37:44;;;;;;;1999.90;999.90;;;;;;;11.40;100.00;99400.63;5059496;28;20052;-51
2022/08/01 02:40:31;;;;;;;1999.90;999.90;;;;;;;11.45;100.00;99405.72;5058494;28;20037;-51
2022/08/01 02:43:20;;;;;;;1999.90;999.90;;;;;;;11.37;100.00;99403.34;5066980;28;20048;-51
2022/08/01 02:46:07;;;;;;;1999.90;999.90;;;;;;;11.40;100.00;99399.75;5061006;28;20051;-51
2022/08/01 02:48:56;;;;;;;1999.90;999.90;;;;;;;11.36;100.00;99408.66;5064235;28;20083;-51
2022/08/01 02:51:42;;;;;;;1999.90;999.90;;;;;;;11.35;100.00;99402.56;5069753;28;20052;-51
2022/08/01 02:54:29;;;;;;;1999.90;999.90;;;;;;;11.25;100.00;99416.03;5065258;28;20053;-51
2022/08/01 02:57:16;;;;;;;1999.90;999.90;;;;;;;11.34;100.00;99405.22;5066565;28;20051;-51
2022/08/01 03:00:01;;;;;;;1999.90;999.90;;;;;;;11.37;100.00;99410.34;5062808;28;20127;-51
2022/08/01 03:02:48;;;;;;;1999.90;999.90;;;;;;;11.23;100.00;99408.22;5066777;28;20055;-51
2022/08/01 03:05:34;;;;;;;1999.90;999.90;;;;;;;11.27;100.00;99412.44;5063891;28;20080;-51
2022/08/01 03:08:20;;;;;;;1999.90;999.90;;;;;;;11.35;100.00;99402.56;5059117;28;22002;-51
2022/08/01 03:11:06;;;;;;;1999.90;999.90;;;;;;;11.34;100.00;99413.09;5054421;28;21379;-51
2022/08/01 03:13:53;;;;;;;1999.90;999.90;;;;;;;11.38;100.00;99406.84;5057809;28;20041;-51
2022/08/01 03:16:39;;;;;;;1999.90;999.90;;;;;;;11.33;100.00;99408.75;5066227;28;20045;-51
2022/08/01 03:19:27;;;;;;;1999.90;999.90;;;;;;;11.47;100.00;99406.50;5056373;28;20360;-51
2022/08/01 03:22:13;;;;;;;1999.90;999.90;;;;;;;11.55;100.00;99404.47;5052839;28;20052;-51
2022/08/01 03:25:00;;;;;;;1999.90;999.90;;;;;;;11.60;100.00;99413.06;5056130;28;20138;-51
2022/08/01 03:27:50;;;;;;;1999.90;999.90;;;;;;;11.71;100.00;99410.03;5059072;28;20059;-51
2022/08/01 03:30:36;;;;;;;1999.90;999.90;;;;;;;11.57;100.00;99407.03;5054451;28;20475;-51
2022/08/01 03:33:21;;;;;;;1999.90;999.90;;;;;;;11.62;100.00;99405.13;5052653;28;20490;-52
2022/08/01 03:36:11;;;;;;;1999.90;999.90;;;;;;;11.80;100.00;99409.72;5063324;28;20074;-51
2022/08/01 03:38:59;;;;;;;1999.90;999.90;;;;;;;11.85;100.00;99405.16;5053190;28;20451;-51
2022/08/01 03:41:50;;;;;;;1999.90;999.90;;;;;;;12.07;100.00;99404.38;5058779;28;20090;-51
2022/08/01 03:44:38;;;;;;;1999.90;999.90;;;;;;;12.04;100.00;99407.13;5060465;28;20056;-52
2022/08/01 03:47:28;;;;;;;1999.90;999.90;;;;;;;12.17;100.00;99405.75;5063690;28;20059;-51
2022/08/01 03:50:16;;;;;;;1999.90;999.90;;;;;;;12.26;100.00;99412.44;5057801;28;20037;-51
2022/08/01 03:53:02;;;;;;;1999.90;999.90;;;;;;;12.34;100.00;99405.09;5059129;28;20469;-52
2022/08/01 03:55:47;;;;;;;1999.90;999.90;;;;;;;12.43;100.00;99414.41;5065200;28;20048;-51
2022/08/01 03:58:33;;;;;;;1999.90;999.90;;;;;;;12.63;100.00;99406.59;5062534;28;20533;-52
2022/08/01 04:01:18;;;;;;;1999.90;999.90;;;;;;;12.59;100.00;99416.38;5054863;28;20049;-51
2022/08/01 04:04:05;;;;;;;1999.90;999.90;;;;;;;12.72;100.00;99410.63;5073817;28;20114;-52
2022/08/01 04:06:53;;;;;;;1999.90;999.90;;;;;;;12.81;100.00;99415.53;5063253;28;20047;-52
2022/08/01 04:09:38;;;;;;;1999.90;999.90;;;;;;;12.81;100.00;99413.75;5068095;28;20045;-52
2022/08/01 04:12:22;;;;;;;1999.90;999.90;;;;;;;12.86;100.00;99406.50;5071663;28;20452;-52
2022/08/01 04:15:07;;;;;;;1999.90;999.90;;;;;;;13.12;100.00;99411.63;5063473;28;20049;-52
2022/08/01 04:17:53;;;;;;;1999.90;999.90;;;;;;;13.21;100.00;99427.88;5066085;28;20090;-52
2022/08/01 04:20:38;;;;;;;1999.90;999.90;;;;;;;13.21;100.00;99425.25;5060718;28;20427;-52
2022/08/01 04:23:25;;;;;;;1999.90;999.90;;;;;;;13.37;100.00;99433.38;5062153;28;20492;-52
2022/08/01 04:26:12;;;;;;;1999.90;999.90;;;;;;;13.49;100.00;99427.59;5055890;28;20052;-52
2022/08/01 04:28:56;;;;;;;1999.90;999.90;;;;;;;13.65;100.00;99421.66;5057851;28;20483;-52
2022/08/01 04:31:44;;;;;;;1999.90;999.90;;;;;;;13.82;100.00;99429.69;5059510;28;20090;-52
2022/08/01 04:34:31;;;;;;;1999.90;999.90;;;;;;;13.68;100.00;99422.41;5060964;28;20529;-52
2022/08/01 04:37:18;;;;;;;1999.90;999.90;;;;;;;14.30;100.00;99427.50;5055703;28;20766;-52
2022/08/01 04:40:08;;;;;;;1999.90;999.90;;;;;;;14.67;100.00;99424.03;5054813;28;20961;-52
2022/08/01 04:42:53;;;;;;;1999.90;999.90;;;;;;;14.38;100.00;99415.69;5065979;28;20079;-52
2022/08/01 04:45:39;;;;;;;1999.90;999.90;;;;;;;14.58;100.00;99419.22;5059537;28;20114;-52
2022/08/01 04:48:24;;;;;;;1999.90;999.90;;;;;;;14.49;100.00;99418.69;5024851;28;1146461;-52
2022/08/01 04:51:15;;;;;;;1999.90;999.90;;;;;;;14.94;100.00;99417.41;5060084;28;20048;-52
2022/08/01 04:54:00;;;;;;;1999.90;999.90;;;;;;;15.23;100.00;99430.09;5060630;28;20552;-53
2022/08/01 04:56:45;;;;;;;1999.90;999.90;;;;;;;15.56;100.00;99417.81;5056057;28;20640;-52
2022/08/01 04:59:40;;;;;;;1999.90;999.90;;;;;;;15.49;100.00;99420.88;5052834;28;20064;-52
2022/08/01 05:02:27;;;;;;;1999.90;999.90;;;;;;;15.87;100.00;99416.28;5065249;28;20075;-52
2022/08/01 05:05:12;;;;;;;1999.90;999.90;;;;;;;16.10;100.00;99415.88;5070509;28;20216;-52
2022/08/01 05:07:57;;;;;;;1999.90;999.90;;;;;;;15.57;100.00;99410.78;5060455;28;20075;-52
2022/08/01 05:10:41;;;;;;;1999.90;999.90;;;;;;;15.93;100.00;99415.94;5056822;28;20050;-52
2022/08/01 05:13:26;;;;;;;1999.90;999.90;;;;;;;15.87;100.00;99408.34;5058364;28;20103;-52
2022/08/01 05:16:10;;;;;;;1999.90;999.90;;;;;;;15.63;100.00;99402.53;5062499;28;20550;-52
2022/08/01 05:18:54;;;;;;;1999.90;999.90;;;;;;;15.92;100.00;99403.66;5064817;28;20059;-53
2022/08/01 05:21:39;;;;;;;1999.90;999.90;;;;;;;16.07;100.00;99404.63;5065209;28;20045;-52
2022/08/01 05:24:23;;;;;;;1999.90;999.90;;;;;;;15.99;100.00;99402.41;5060696;28;20226;-52
2022/08/01 05:27:07;;;;;;;1999.90;999.90;;;;;;;16.22;100.00;99403.81;5068334;28;20040;-52
2022/08/01 05:29:52;;;;;;;1999.90;999.90;;;;;;;16.33;100.00;99409.34;5063104;28;20048;-53
2022/08/01 05:32:36;;;;;;;1999.90;999.90;;;;;;;16.31;100.00;99410.38;5066020;28;20071;-52
2022/08/01 05:35:21;;;;;;;1999.90;999.90;;;;;;;16.30;100.00;99408.66;5058439;28;20114;-52
2022/08/01 05:38:06;;;;;;;1999.90;999.90;;;;;;;16.51;100.00;99403.97;5070389;28;20391;-52
2022/08/01 05:40:50;;;;;;;1999.90;999.90;;;;;;;16.63;100.00;99400.66;5073133;28;20043;-52
2022/08/01 05:43:35;;;;;;;1999.90;999.90;;;;;;;16.71;100.00;99409.03;5058420;28;20399;-52
2022/08/01 05:46:19;;;;;;;1999.90;999.90;;;;;;;16.59;100.00;99397.31;5055502;28;20052;-52
2022/08/01 05:49:04;;;;;;;1999.90;999.90;;;;;;;16.89;100.00;99398.34;5067160;28;20451;-52
2022/08/01 05:51:49;;;;;;;1999.90;999.90;;;;;;;16.57;100.00;99401.00;5063568;28;20056;-52
2022/08/01 05:54:33;;;;;;;1999.90;999.90;;;;;;;16.80;100.00;99391.78;5060783;28;20060;-52
2022/08/01 05:57:18;;;;;;;1999.90;999.90;;;;;;;16.98;100.00;99392.53;5060896;28;20052;-52
2022/08/01 06:00:02;;;;;;;1999.90;999.90;;;;;;;17.10;100.00;99385.69;5066114;28;20513;-52
2022/08/01 06:02:56;;;;;;;1999.90;999.90;;;;;;;17.24;100.00;99393.66;5068681;28;20140;-53
2022/08/01 06:05:40;;;;;;;1999.90;999.90;;;;;;;17.29;100.00;99388.97;5063206;28;21465;-53
2022/08/01 06:08:25;;;;;;;1999.90;999.90;;;;;;;17.20;100.00;99392.16;5060929;28;20101;-52
2022/08/01 06:11:09;;;;;;;1999.90;999.90;;;;;;;17.01;100.00;99395.00;5063677;28;20142;-52
2022/08/01 06:13:54;;;;;;;1999.90;999.90;;;;;;;17.32;100.00;99388.75;5060431;28;20053;-52
2022/08/01 06:16:38;;;;;;;1999.90;999.90;;;;;;;17.50;100.00;99395.59;5070201;28;20129;-52
2022/08/01 06:19:23;;;;;;;1999.90;999.90;;;;;;;17.60;100.00;99387.97;5071235;28;20064;-52
2022/08/01 06:22:07;;;;;;;1999.90;999.90;;;;;;;17.84;100.00;99393.59;5070352;28;20044;-52
2022/08/01 06:24:51;;;;;;;1999.90;999.90;;;;;;;18.20;100.00;99393.13;5057573;28;20121;-52
2022/08/01 06:27:35;;;;;;;1999.90;999.90;;;;;;;17.99;100.00;99403.22;5067231;28;20190;-52
2022/08/01 06:30:20;;;;;;;1999.90;999.90;;;;;;;17.87;100.00;99406.63;5061906;28;20044;-52
2022/08/01 06:33:05;;;;;;;1999.90;999.90;;;;;;;17.89;100.00;99410.06;5065462;28;20058;-53
2022/08/01 06:35:49;;;;;;;1999.90;999.90;;;;;;;17.90;100.00;99401.16;5055483;28;20055;-52
2022/08/01 06:38:34;;;;;;;1999.90;999.90;;;;;;;17.96;100.00;99400.78;5065897;28;20048;-52
2022/08/01 06:41:18;;;;;;;1999.90;999.90;;;;;;;17.84;100.00;99406.84;5057481;28;20051;-52
2022/08/01 06:44:04;;;;;;;1999.90;999.90;;;;;;;17.87;100.00;99398.69;5073008;28;20048;-53
2022/08/01 06:46:48;;;;;;;1999.90;999.90;;;;;;;17.99;100.00;99402.38;5061254;28;20045;-52
2022/08/01 06:49:32;;;;;;;1999.90;999.90;;;;;;;18.11;100.00;99412.22;5055532;28;20052;-52
2022/08/01 06:52:17;;;;;;;1999.90;999.90;;;;;;;18.22;100.00;99400.94;5067333;28;20660;-53
2022/08/01 06:55:02;;;;;;;1999.90;999.90;;;;;;;18.34;100.00;99402.00;5064884;28;20144;-53
2022/08/01 06:57:49;;;;;;;1999.90;999.90;;;;;;;18.46;100.00;99406.50;5057112;28;20427;-53
2022/08/01 07:00:34;;;;;;;1999.90;999.90;;;;;;;18.52;100.00;99406.09;5054583;28;20047;-53
2022/08/01 07:03:18;;;;;;;1999.90;999.90;;;;;;;18.55;100.00;99407.72;5050572;28;20052;-53
2022/08/01 07:06:03;;;;;;;1999.90;999.90;;;;;;;18.91;100.00;99407.16;5058742;28;20067;-53
2022/08/01 07:08:47;;;;;;;1999.90;999.90;;;;;;;18.84;100.00;99406.69;5056791;28;20056;-52
2022/08/01 07:11:31;;;;;;;1999.90;999.90;;;;;;;18.81;100.00;99392.78;5058276;28;20483;-52
2022/08/01 07:14:16;;;;;;;1999.90;999.90;;;;;;;18.65;100.00;99399.09;5056558;28;20052;-53
2022/08/01 07:17:00;;;;;;;1999.90;999.90;;;;;;;18.92;100.00;99404.41;5057469;28;20530;-53
2022/08/01 07:19:45;;;;;;;1999.90;999.90;;;;;;;18.76;100.00;99406.38;5057218;28;20071;-52
2022/08/01 07:22:29;;;;;;;1999.90;999.90;;;;;;;18.65;100.00;99412.34;5050946;28;20072;-53
2022/08/01 07:25:14;;;;;;;1999.90;999.90;;;;;;;18.73;100.00;99411.88;5054620;28;20198;-53
2022/08/01 07:27:59;;;;;;;1999.90;999.90;;;;;;;18.90;100.00;99406.31;5058889;28;20372;-53
2022/08/01 07:30:44;;;;;;;1999.90;999.90;;;;;;;19.10;100.00;99410.28;5051990;28;20052;-53
2022/08/01 07:33:28;;;;;;;1999.90;999.90;;;;;;;19.19;100.00;99410.63;5052562;28;20048;-53
2022/08/01 07:36:13;;;;;;;1999.90;999.90;;;;;;;19.30;100.00;99413.41;5053955;28;20388;-53
2022/08/01 07:38:57;;;;;;;1999.90;999.90;;;;;;;19.48;100.00;99414.84;5057571;28;20051;-53
2022/08/01 07:41:42;;;;;;;1999.90;999.90;;;;;;;19.51;100.00;99408.47;5053130;28;20045;-53
2022/08/01 07:44:26;;;;;;;1999.90;999.90;;;;;;;19.53;100.00;99422.47;5052570;28;20047;-53
2022/08/01 07:47:11;;;;;;;1999.90;999.90;;;;;;;19.54;100.00;99411.75;5056068;28;20472;-53
2022/08/01 07:50:00;;;;;;;1999.90;999.90;;;;;;;19.38;100.00;99413.75;5052325;28;20118;-54
2022/08/01 07:52:45;;;;;;;1999.90;999.90;;;;;;;19.52;100.00;99418.13;5054486;28;20052;-54
2022/08/01 07:55:29;;;;;;;1999.90;999.90;;;;;;;19.72;100.00;99416.78;5051764;28;20067;-53
2022/08/01 07:58:14;;;;;;;1999.90;999.90;;;;;;;19.67;100.00;99411.81;5053354;28;20161;-53
2022/08/01 08:00:59;;;;;;;1999.90;999.90;;;;;;;20.14;100.00;99415.59;5058846;28;20131;-53
2022/08/01 08:03:43;;;;;;;1999.90;999.90;;;;;;;19.43;100.00;99414.28;5050088;28;20052;-53
2022/08/01 08:06:27;;;;;;;1999.90;999.90;;;;;;;19.73;100.00;99414.03;5051708;28;20518;-53
2022/08/01 08:09:12;;;;;;;1999.90;999.90;;;;;;;19.87;100.00;99415.75;5052884;28;20542;-53
2022/08/01 08:11:56;;;;;;;1999.90;999.90;;;;;;;20.14;100.00;99417.41;5051974;28;20054;-53
2022/08/01 08:14:41;;;;;;;1999.90;999.90;;;;;;;20.36;100.00;99406.94;5053917;28;20045;-53
2022/08/01 08:17:26;;;;;;;1999.90;999.90;;;;;;;20.41;100.00;99407.47;5057325;28;20775;-53
2022/08/01 08:20:10;;;;;;;1999.90;999.90;;;;;;;20.44;100.00;99409.06;5058785;28;20467;-53
2022/08/01 08:22:56;;;;;;;1999.90;999.90;;;;;;;21.06;100.00;99410.75;5058785;28;20098;-53
2022/08/01 08:25:41;;;;;;;1999.90;999.90;;;;;;;21.29;100.00;99414.38;5054000;28;20112;-53
2022/08/01 08:28:25;;;;;;;1999.90;999.90;;;;;;;21.40;100.00;99415.28;5053697;28;20052;-53
2022/08/01 08:31:10;;;;;;;1999.90;999.90;;;;;;;21.30;100.00;99411.59;5053521;28;20040;-53
2022/08/01 08:33:54;;;;;;;1999.90;999.90;;;;;;;21.53;100.00;99417.84;5059678;28;20072;-53
2022/08/01 08:36:38;;;;;;;1999.90;999.90;;;;;;;21.08;100.00;99414.16;5067119;28;20055;-53
2022/08/01 08:39:23;;;;;;;1999.90;999.90;;;;;;;21.02;100.00;99418.97;5071999;28;20037;-53
2022/08/01 08:42:08;;;;;;;1999.90;999.90;;;;;;;21.39;100.00;99420.75;5066300;28;20048;-54
2022/08/01 08:44:54;;;;;;;1999.90;999.90;;;;;;;21.69;100.00;99423.69;5066216;28;20131;-54
2022/08/01 08:47:41;;;;;;;1999.90;999.90;;;;;;;22.28;100.00;99417.34;5066478;28;20055;-54
2022/08/01 08:50:26;;;;;;;1999.90;999.90;;;;;;;22.11;100.00;99424.00;5063332;28;20062;-54
2022/08/01 08:53:13;;;;;;;1999.90;999.90;;;;;;;22.06;100.00;99419.97;5062172;28;20055;-54
2022/08/01 08:55:58;;;;;;;1999.90;999.90;;;;;;;21.92;100.00;99427.25;5065183;28;20067;-54
2022/08/01 08:58:45;;;;;;;1999.90;999.90;;;;;;;21.96;100.00;99419.00;5069257;28;20056;-54
2022/08/01 09:01:32;;;;;;;1999.90;999.90;;;;;;;22.10;100.00;99426.78;5066395;28;20649;-54
2022/08/01 09:04:17;;;;;;;1999.90;999.90;;;;;;;22.51;100.00;99436.84;5065006;28;20063;-54
2022/08/01 09:07:04;;;;;;;1999.90;999.90;;;;;;;23.15;100.00;99430.78;5065178;28;20707;-54
2022/08/01 09:09:49;;;;;;;1999.90;999.90;;;;;;;22.69;100.00;99439.03;5063616;28;20434;-54
2022/08/01 09:12:33;;;;;;;1999.90;999.90;;;;;;;21.98;100.00;99427.75;5067444;28;20093;-54
2022/08/01 09:15:44;;;;;;;1999.90;999.90;;;;;;;22.68;100.00;99434.63;5069440;28;20040;-54
2022/08/01 09:18:43;;;;;;;1999.90;999.90;;;;;;;22.87;100.00;99437.50;5061625;28;20087;-54
2022/08/01 09:21:28;;;;;;;1999.90;999.90;;;;;;;23.01;100.00;99441.72;5057379;28;20047;-54
2022/08/01 09:24:16;;;;;;;1999.90;999.90;;;;;;;22.80;100.00;99437.16;5058504;28;20070;-54
2022/08/01 09:27:16;;;;;;;1999.90;999.90;;;;;;;22.59;100.00;99444.25;5055290;28;20045;-54
2022/08/01 09:30:27;;;;;;;1999.90;999.90;;;;;;;22.78;100.00;99447.13;5055848;28;20139;-53
2022/08/01 09:33:11;;;;;;;1999.90;999.90;;;;;;;22.57;100.00;99447.03;5058064;28;20045;-53
2022/08/01 09:35:57;;;;;;;1999.90;999.90;;;;;;;22.85;100.00;99444.81;5065411;28;20055;-53
2022/08/01 09:38:41;;;;;;;1999.90;999.90;;;;;;;22.91;100.00;99444.31;5054528;28;20597;-54
2022/08/01 09:41:32;;;;;;;1999.90;999.90;;;;;;;22.80;100.00;99441.66;5061964;28;20122;-53
2022/08/01 09:44:18;;;;;;;1999.90;999.90;;;;;;;23.04;100.00;99444.16;5057296;28;20056;-53
2022/08/01 09:47:03;;;;;;;1999.90;999.90;;;;;;;23.13;100.00;99442.56;5060340;28;20047;-53
2022/08/01 09:49:56;;;;;;;1999.90;999.90;;;;;;;23.24;100.00;99447.88;5062859;28;20667;-54
2022/08/01 09:52:40;;;;;;;1999.90;999.90;;;;;;;23.42;100.00;99454.31;5055335;28;20127;-53
2022/08/01 09:55:25;;;;;;;1999.90;999.90;;;;;;;23.32;100.00;99448.06;5055753;28;20044;-53
2022/08/01 09:58:11;;;;;;;1999.90;999.90;;;;;;;23.78;100.00;99447.72;5058530;28;20060;-54
2022/08/01 10:01:03;;;;;;;1999.90;999.90;;;;;;;23.77;100.00;99440.69;5059131;28;20049;-54
2022/08/01 10:04:04;;;;;;;1999.90;999.90;;;;;;;24.59;100.00;99441.63;5050197;28;20039;-54
2022/08/01 10:06:52;;;;;;;1999.90;999.90;;;;;;;25.07;100.00;99446.25;5062226;28;20510;-54
2022/08/01 10:09:37;;;;;;;1999.90;999.90;;;;;;;24.34;100.00;99443.78;5059902;28;20055;-54
2022/08/01 10:12:23;;;;;;;1999.90;999.90;;;;;;;24.43;100.00;99434.97;5058650;28;20086;-55
2022/08/01 10:15:09;;;;;;;1999.90;999.90;;;;;;;24.64;100.00;99434.91;5055283;28;20164;-54
2022/08/01 10:17:56;;;;;;;1999.90;999.90;;;;;;;25.04;100.00;99436.66;5061563;28;20364;-54
2022/08/01 10:20:41;;;;;;;1999.90;999.90;;;;;;;25.46;100.00;99435.56;5056036;28;20053;-54
2022/08/01 10:23:34;;;;;;;1999.90;999.90;;;;;;;25.20;100.00;99429.94;5058497;28;20751;-54
2022/08/01 10:26:18;;;;;;;1999.90;999.90;;;;;;;25.40;100.00;99428.94;5055598;28;20056;-54
2022/08/01 10:29:04;;;;;;;1999.90;999.90;;;;;;;25.61;100.00;99428.78;5055430;28;20103;-54
2022/08/01 10:31:49;;;;;;;1999.90;999.90;;;;;;;25.61;100.00;99421.56;5057052;28;20120;-55
2022/08/01 10:34:35;;;;;;;1999.90;999.90;;;;;;;25.42;100.00;99424.28;5056368;28;20052;-54
2022/08/01 10:37:20;;;;;;;1999.90;999.90;;;;;;;25.11;100.00;99429.75;5055358;28;20050;-54
2022/08/01 10:40:06;;;;;;;1999.90;999.90;;;;;;;25.57;100.00;99417.47;5053997;28;20059;-54
2022/08/01 10:42:51;;;;;;;1999.90;999.90;;;;;;;25.95;100.00;99414.88;5053887;28;20051;-54
2022/08/01 10:45:37;;;;;;;1999.90;999.90;;;;;;;27.47;100.00;99422.34;5061792;28;20059;-54
2022/08/01 10:48:38;;;;;;;1999.90;999.90;;;;;;;27.02;100.00;99409.81;5065782;28;20040;-55
2022/08/01 10:51:24;;;;;;;1999.90;999.90;;;;;;;27.13;100.00;99406.91;5058011;28;20447;-55
2022/08/01 10:54:10;;;;;;;1999.90;999.90;;;;;;;28.41;100.00;99403.59;5060413;28;20041;-55
2022/08/01 10:56:59;;;;;;;1999.90;999.90;;;;;;;27.58;100.00;99399.72;5061608;28;20056;-55
2022/08/01 10:59:49;;;;;;;1999.90;999.90;;;;;;;27.62;100.00;99403.78;5054099;28;20410;-54
2022/08/01 11:02:34;;;;;;;1999.90;999.90;;;;;;;27.26;100.00;99403.84;5055825;28;20044;-55
2022/08/01 11:05:21;;;;;;;1999.90;999.90;;;;;;;27.38;100.00;99404.44;5053900;28;20056;-54
2022/08/01 11:08:22;;;;;;;1999.90;999.90;;;;;;;28.71;100.00;99403.19;5057259;28;20091;-55
2022/08/01 11:11:07;;;;;;;1999.90;999.90;;;;;;;28.08;99.69;99397.22;5056564;28;20049;-55
2022/08/01 11:13:58;;;;;;;1999.90;999.90;;;;;;;28.02;100.00;99399.69;5055810;28;20404;-55
2022/08/01 11:16:42;;;;;;;1999.90;999.90;;;;;;;28.04;100.00;99400.38;5056246;28;20107;-55
2022/08/01 11:20:05;;;;;;;1999.90;999.90;;;;;;;27.00;100.00;99404.56;5053927;28;20032;-55
2022/08/01 11:22:58;;;;;;;1999.90;999.90;;;;;;;27.11;100.00;99408.06;5055834;28;20171;-55
2022/08/01 11:25:45;;;;;;;1999.90;999.90;;;;;;;27.67;100.00;99404.16;5053581;28;20053;-55
2022/08/01 11:28:31;;;;;;;1999.90;999.90;;;;;;;26.92;100.00;99401.81;5050797;28;20129;-55
2022/08/01 11:31:16;;;;;;;1999.90;999.90;;;;;;;26.57;100.00;99402.63;5051265;28;20681;-55
2022/08/01 11:34:00;;;;;;;1999.90;999.90;;;;;;;26.93;100.00;99398.13;5061189;28;20049;-55
2022/08/01 11:36:45;;;;;;;1999.90;999.90;;;;;;;27.06;100.00;99389.69;5063338;28;20049;-54
2022/08/01 11:39:29;;;;;;;1999.90;999.90;;;;;;;27.22;100.00;99400.59;5065017;28;20681;-55
2022/08/01 11:42:19;;;;;;;1999.90;999.90;;;;;;;26.81;100.00;99402.03;5056749;28;20063;-55
2022/08/01 11:45:04;;;;;;;1999.90;999.90;;;;;;;27.04;100.00;99397.91;5054622;28;20055;-55
2022/08/01 11:47:51;;;;;;;1999.90;999.90;;;;;;;27.44;100.00;99404.66;5055720;28;20069;-54
2022/08/01 11:50:36;;;;;;;1999.90;999.90;;;;;;;27.02;100.00;99405.28;5053493;28;20381;-55
2022/08/01 11:53:21;;;;;;;1999.90;999.90;;;;;;;26.82;100.00;99395.69;5056858;28;20540;-55
2022/08/01 11:56:05;;;;;;;1999.90;999.90;;;;;;;27.50;100.00;99405.88;5064517;28;20099;-54
2022/08/01 11:58:59;;;;;;;1999.90;999.90;;;;;;;27.33;100.00;99404.06;5058612;28;20056;-55
2022/08/01 12:01:43;;;;;;;1999.90;999.90;;;;;;;27.05;100.00;99404.13;5069180;28;20053;-54
2022/08/01 12:04:44;;;;;;;1999.90;999.90;;;;;;;27.30;100.00;99407.06;5070249;28;20107;-54
2022/08/01 12:07:31;;;;;;;1999.90;999.90;;;;;;;27.70;100.00;99395.78;5072649;28;20087;-55
2022/08/01 12:10:18;;;;;;;1999.90;999.90;;;;;;;27.38;94.63;99394.53;5068136;28;20040;-54
2022/08/01 12:13:05;;;;;;;1999.90;999.90;;;;;;;27.74;91.29;99394.44;5064989;28;20043;-55